Time;durP1;ratioP1;P1;durP2;ratioP2;P2;SDS_P1;SDS_P2;PMS_P1;PMS_P2;Temp;Humidity;BMP_temperature;BMP_pressure;BME280_temperature;BME280_humidity;BME280_pressure;Samples;Min_cycle;Max_cycle;Signal;HPM_P1;HPM_P2
2021/03/02 00:01:04;;;;;;;0.73;0.73;;;2.80;99.90;;;;;;4417137;32;20510;-88
2021/03/02 00:03:33;;;;;;;3.50;1.37;;;2.80;99.90;;;;;;4416815;32;20243;-89
2021/03/02 00:06:00;;;;;;;1.02;0.95;;;2.90;99.90;;;;;;4416822;32;20404;-89
2021/03/02 00:08:27;;;;;;;0.60;0.60;;;3.00;99.90;;;;;;4413029;32;20070;-89
2021/03/02 00:10:53;;;;;;;1.40;0.85;;;3.00;99.90;;;;;;4401385;32;20062;-88
2021/03/02 00:13:19;;;;;;;0.80;0.80;;;2.90;99.90;;;;;;4402067;32;20487;-89
2021/03/02 00:15:44;;;;;;;0.50;0.50;;;2.80;99.90;;;;;;4401473;32;20186;-88
2021/03/02 00:18:13;;;;;;;0.60;0.60;;;2.80;99.90;;;;;;4401534;32;20101;-88
2021/03/02 00:20:42;;;;;;;0.55;0.55;;;2.70;99.90;;;;;;4401589;32;20500;-88
2021/03/02 00:23:15;;;;;;;0.85;0.85;;;2.60;99.90;;;;;;4401565;32;20135;-89
2021/03/02 00:25:46;;;;;;;0.70;0.70;;;2.60;99.90;;;;;;4401775;32;20070;-88
2021/03/02 00:28:12;;;;;;;0.90;0.80;;;2.70;99.90;;;;;;4402012;32;20126;-88
2021/03/02 00:30:39;;;;;;;1.02;0.77;;;2.70;99.90;;;;;;4401572;32;20070;-89
2021/03/02 00:33:05;;;;;;;2.72;1.10;;;2.70;99.90;;;;;;4402012;32;20495;-89
2021/03/02 00:35:31;;;;;;;1.48;1.15;;;2.70;99.90;;;;;;4401669;32;20404;-88
2021/03/02 00:37:57;;;;;;;4.20;1.35;;;2.60;99.90;;;;;;4401220;32;20087;-88
2021/03/02 00:40:24;;;;;;;3.95;1.30;;;2.70;99.90;;;;;;4401924;32;20070;-88
2021/03/02 00:42:50;;;;;;;4.37;2.62;;;2.60;99.90;;;;;;4401255;32;20083;-88
2021/03/02 00:45:17;;;;;;;0.45;0.45;;;2.70;99.90;;;;;;4401985;32;20125;-88
2021/03/02 00:47:43;;;;;;;1.45;1.12;;;2.60;99.90;;;;;;4401961;32;20070;-89
2021/03/02 00:50:09;;;;;;;0.50;0.50;;;2.70;99.90;;;;;;4402343;32;20124;-89
2021/03/02 00:52:35;;;;;;;1.45;0.75;;;2.70;99.90;;;;;;4402391;32;20511;-88
2021/03/02 00:55:01;;;;;;;0.60;0.60;;;2.80;99.90;;;;;;4402349;32;20078;-89
2021/03/02 00:57:26;;;;;;;0.50;0.50;;;2.70;99.90;;;;;;4402320;32;20081;-89
2021/03/02 00:59:52;;;;;;;0.90;0.90;;;2.70;99.90;;;;;;4411869;32;20058;-88
2021/03/02 01:02:17;;;;;;;1.17;0.80;;;2.80;99.90;;;;;;4406903;32;20117;-88
2021/03/02 01:04:43;;;;;;;0.70;0.70;;;2.80;99.90;;;;;;4401612;32;20125;-88
2021/03/02 01:07:09;;;;;;;0.68;0.60;;;2.70;99.90;;;;;;4401484;32;20095;-89
2021/03/02 01:09:35;;;;;;;0.80;0.80;;;2.60;99.90;;;;;;4412961;32;20069;-88
2021/03/02 01:12:01;;;;;;;1.23;1.08;;;2.70;99.90;;;;;;4415786;32;20066;-88
2021/03/02 01:14:28;;;;;;;0.60;0.60;;;2.60;99.90;;;;;;4416096;32;20058;-88
2021/03/02 01:16:55;;;;;;;2.95;1.67;;;2.60;99.90;;;;;;4416244;32;20086;-88
2021/03/02 01:19:20;;;;;;;0.93;0.93;;;2.60;99.90;;;;;;4416427;32;20065;-88
2021/03/02 01:21:46;;;;;;;0.80;0.80;;;2.70;99.90;;;;;;4416185;32;20090;-88
2021/03/02 01:24:11;;;;;;;1.73;1.60;;;2.70;99.90;;;;;;4416816;32;20128;-88
2021/03/02 01:26:37;;;;;;;0.90;0.90;;;2.60;99.90;;;;;;4416164;32;20120;-88
2021/03/02 01:29:05;;;;;;;0.80;0.80;;;2.60;99.90;;;;;;4416042;32;20075;-88
2021/03/02 01:31:30;;;;;;;0.52;0.52;;;2.60;99.90;;;;;;4416044;32;20380;-88
2021/03/02 01:33:56;;;;;;;1.35;1.08;;;2.50;99.90;;;;;;4415932;32;20158;-88
2021/03/02 01:36:21;;;;;;;0.75;0.75;;;2.40;99.90;;;;;;4416266;32;20074;-88
2021/03/02 01:38:48;;;;;;;0.80;0.80;;;2.40;99.90;;;;;;4416024;32;20568;-88
2021/03/02 01:41:15;;;;;;;0.82;0.80;;;2.40;99.90;;;;;;4415904;32;20147;-88
2021/03/02 01:43:41;;;;;;;1.52;1.27;;;2.30;99.90;;;;;;4415100;32;20073;-88
2021/03/02 01:46:07;;;;;;;0.90;0.90;;;2.10;99.90;;;;;;4414608;32;20165;-89
2021/03/02 01:48:34;;;;;;;1.45;1.10;;;2.00;99.90;;;;;;4415339;32;20462;-88
2021/03/02 01:51:00;;;;;;;0.40;0.40;;;2.00;99.90;;;;;;4414907;32;20065;-88
2021/03/02 01:53:26;;;;;;;1.20;1.05;;;2.00;99.90;;;;;;4415147;32;20555;-88
2021/03/02 01:55:51;;;;;;;0.80;0.73;;;2.20;99.90;;;;;;4415250;32;20094;-88
2021/03/02 01:58:17;;;;;;;4.25;1.45;;;2.20;99.90;;;;;;4415447;32;20073;-88
2021/03/02 02:01:00;;;;;;;2.70;0.95;;;2.20;99.90;;;;;;4415327;32;20801;-88
2021/03/02 02:03:39;;;;;;;1.60;0.98;;;2.00;99.90;;;;;;4415492;32;20518;-88
2021/03/02 02:06:27;;;;;;;1.10;1.05;;;2.00;99.90;;;;;;4416172;32;20074;-88
2021/03/02 02:08:59;;;;;;;0.82;0.82;;;2.10;99.90;;;;;;4408652;32;20062;-88
2021/03/02 02:11:43;;;;;;;0.70;0.70;;;2.00;99.90;;;;;;4399550;32;20069;-88
2021/03/02 02:14:22;;;;;;;1.37;1.08;;;2.10;99.90;;;;;;4400474;32;20071;-89
2021/03/02 02:16:52;;;;;;;0.68;0.68;;;2.00;99.90;;;;;;4401090;32;20073;-89
2021/03/02 02:19:33;;;;;;;1.08;1.00;;;2.00;99.90;;;;;;4402438;32;20230;-88
2021/03/02 02:22:11;;;;;;;1.48;1.37;;;2.00;99.90;;;;;;4412297;32;20071;-87
2021/03/02 02:24:57;;;;;;;0.65;0.65;;;2.10;99.90;;;;;;4402212;32;20569;-88
2021/03/02 02:27:25;;;;;;;0.60;0.60;;;2.10;99.90;;;;;;4401073;32;20066;-88
2021/03/02 02:29:52;;;;;;;1.95;1.15;;;1.90;99.90;;;;;;4400699;32;20062;-88
2021/03/02 02:32:18;;;;;;;1.98;0.85;;;1.90;99.90;;;;;;4400764;32;20066;-88
2021/03/02 02:34:45;;;;;;;0.70;0.70;;;2.00;99.90;;;;;;4400696;32;20062;-88
2021/03/02 02:37:12;;;;;;;4.87;0.98;;;2.00;99.90;;;;;;4401333;32;20082;-88
2021/03/02 02:39:39;;;;;;;0.70;0.70;;;1.90;99.90;;;;;;4400718;32;20491;-88
2021/03/02 02:42:07;;;;;;;2.12;1.77;;;1.80;99.90;;;;;;4400443;32;20101;-88
2021/03/02 02:44:35;;;;;;;2.28;1.85;;;1.90;99.90;;;;;;4400019;32;20062;-88
2021/03/02 02:47:01;;;;;;;0.60;0.60;;;1.80;99.90;;;;;;4400973;32;20133;-88
2021/03/02 02:49:27;;;;;;;0.90;0.90;;;1.60;99.90;;;;;;4400754;32;20069;-88
2021/03/02 02:51:53;;;;;;;2.53;0.93;;;1.50;99.90;;;;;;4400814;32;20133;-87
2021/03/02 02:54:20;;;;;;;1.35;1.25;;;1.60;99.90;;;;;;4400423;32;20058;-87
2021/03/02 02:56:46;;;;;;;0.77;0.77;;;1.60;99.90;;;;;;4400597;32;20074;-87
2021/03/02 02:59:24;;;;;;;0.40;0.40;;;1.50;99.90;;;;;;4400626;32;20065;-87
2021/03/02 03:01:56;;;;;;;0.73;0.73;;;1.40;99.90;;;;;;4400357;32;20067;-87
2021/03/02 03:04:27;;;;;;;0.80;0.80;;;1.40;99.90;;;;;;4400763;32;20078;-86
2021/03/02 03:06:56;;;;;;;;;;;1.50;99.90;;;;;;4400284;32;20463;-87
2021/03/02 03:09:22;;;;;;;0.82;0.82;;;1.50;99.90;;;;;;4408634;32;19942;-87
2021/03/02 03:11:56;;;;;;;1.37;1.27;;;1.40;99.90;;;;;;4415584;32;20420;-87
2021/03/02 03:14:24;;;;;;;0.62;0.62;;;1.40;99.90;;;;;;4415409;32;20137;-87
2021/03/02 03:16:50;;;;;;;0.52;0.52;;;1.30;99.90;;;;;;4414968;32;20073;-87
2021/03/02 03:19:34;;;;;;;1.02;1.00;;;1.40;99.90;;;;;;4415599;32;20073;-87
2021/03/02 03:22:02;;;;;;;2.00;1.50;;;1.40;99.90;;;;;;4415492;32;20061;-87
2021/03/02 03:24:29;;;;;;;1.75;1.02;;;1.40;99.90;;;;;;4415002;32;20049;-87
2021/03/02 03:26:57;;;;;;;1.33;1.23;;;1.30;99.90;;;;;;4416537;32;20054;-87
2021/03/02 03:29:24;;;;;;;2.12;1.30;;;1.20;99.90;;;;;;4418013;32;20134;-87
2021/03/02 03:31:51;;;;;;;2.25;1.80;;;0.90;99.90;;;;;;4418007;32;20137;-87
2021/03/02 03:34:17;;;;;;;1.20;0.75;;;0.80;99.90;;;;;;4417437;32;20062;-87
2021/03/02 03:36:43;;;;;;;0.40;0.40;;;0.80;99.90;;;;;;4418298;32;20120;-86
2021/03/02 03:39:09;;;;;;;1.40;1.30;;;0.90;99.90;;;;;;4418208;32;20479;-88
2021/03/02 03:41:35;;;;;;;0.60;0.60;;;1.10;99.90;;;;;;4424158;32;20074;-87
2021/03/02 03:44:02;;;;;;;0.40;0.40;;;1.10;99.90;;;;;;4428383;32;20086;-86
2021/03/02 03:46:28;;;;;;;3.50;1.17;;;1.10;99.90;;;;;;4417277;32;20121;-86
2021/03/02 03:48:53;;;;;;;1.20;1.12;;;1.00;99.90;;;;;;4417256;32;20494;-86
2021/03/02 03:51:22;;;;;;;0.68;0.68;;;1.00;99.90;;;;;;4417476;32;20065;-86
2021/03/02 03:53:49;;;;;;;0.65;0.65;;;1.00;99.90;;;;;;4416857;32;20095;-86
2021/03/02 03:56:15;;;;;;;0.65;0.65;;;1.10;99.90;;;;;;4417288;32;20117;-86
2021/03/02 03:58:42;;;;;;;0.50;0.50;;;1.00;99.90;;;;;;4416602;32;20074;-87
2021/03/02 04:01:08;;;;;;;1.62;1.05;;;1.00;99.90;;;;;;4417130;32;20232;-87
2021/03/02 04:03:35;;;;;;;3.70;1.50;;;0.90;99.90;;;;;;4416919;32;20082;-87
2021/03/02 04:06:02;;;;;;;6.12;1.17;;;0.70;99.90;;;;;;4417987;32;20519;-87
2021/03/02 04:08:28;;;;;;;0.98;0.90;;;0.70;99.90;;;;;;4418059;32;20069;-86
2021/03/02 04:10:55;;;;;;;1.30;1.20;;;0.80;99.90;;;;;;4418046;32;20102;-86
2021/03/02 04:13:20;;;;;;;0.77;0.77;;;0.60;99.90;;;;;;4418305;32;20070;-86
2021/03/02 04:15:46;;;;;;;0.80;0.80;;;0.50;99.90;;;;;;4416840;32;20079;-87
2021/03/02 04:18:14;;;;;;;1.10;1.05;;;0.50;99.90;;;;;;4417198;32;20091;-86
2021/03/02 04:20:41;;;;;;;0.50;0.50;;;0.40;99.90;;;;;;4417535;32;20077;-86
2021/03/02 04:23:07;;;;;;;0.50;0.50;;;0.60;99.90;;;;;;4417212;32;20103;-86
2021/03/02 04:25:32;;;;;;;0.68;0.68;;;0.60;99.90;;;;;;4417453;32;20086;-87
2021/03/02 04:27:59;;;;;;;0.82;0.82;;;0.50;99.90;;;;;;4418127;32;20173;-87
2021/03/02 04:30:25;;;;;;;2.80;1.52;;;0.50;99.90;;;;;;4417876;32;20069;-86
2021/03/02 04:32:51;;;;;;;1.08;1.00;;;0.50;99.90;;;;;;4418293;32;20086;-87
2021/03/02 04:35:17;;;;;;;0.60;0.60;;;0.50;99.90;;;;;;4418295;32;20409;-87
2021/03/02 04:37:43;;;;;;;0.60;0.60;;;0.60;99.90;;;;;;4417718;32;20087;-87
2021/03/02 04:40:10;;;;;;;1.98;1.48;;;0.70;99.90;;;;;;4417767;32;20069;-87
2021/03/02 04:42:35;;;;;;;0.40;0.40;;;0.80;99.90;;;;;;4417542;32;20133;-87
2021/03/02 04:45:03;;;;;;;0.98;0.85;;;0.80;99.90;;;;;;4417803;32;20074;-86
2021/03/02 04:47:29;;;;;;;0.73;0.73;;;0.70;99.90;;;;;;4418357;32;20070;-86
2021/03/02 04:49:54;;;;;;;0.50;0.50;;;0.70;99.90;;;;;;4418125;32;20082;-86
2021/03/02 04:52:20;;;;;;;2.78;1.35;;;0.70;99.90;;;;;;4418188;32;20086;-87
2021/03/02 04:54:45;;;;;;;0.68;0.68;;;0.70;99.90;;;;;;4417756;32;20175;-87
2021/03/02 04:57:11;;;;;;;0.77;0.77;;;0.60;99.90;;;;;;4417877;32;20121;-87
2021/03/02 04:59:38;;;;;;;0.43;0.43;;;0.60;99.90;;;;;;4417848;32;20057;-87
2021/03/02 05:02:03;;;;;;;0.60;0.60;;;0.50;99.90;;;;;;4417810;32;20511;-87
2021/03/02 05:04:29;;;;;;;0.65;0.65;;;0.40;99.90;;;;;;4417890;32;20065;-87
2021/03/02 05:06:55;;;;;;;0.77;0.77;;;0.40;99.90;;;;;;4417357;32;20103;-87
2021/03/02 05:09:20;;;;;;;0.73;0.73;;;0.50;99.90;;;;;;4408189;32;20066;-87
2021/03/02 05:11:46;;;;;;;2.85;1.27;;;0.60;99.90;;;;;;4402644;32;20511;-87
2021/03/02 05:14:11;;;;;;;0.40;0.40;;;0.50;99.90;;;;;;4401724;32;20087;-87
2021/03/02 05:16:37;;;;;;;0.95;0.90;;;0.40;99.90;;;;;;4401963;32;20066;-87
2021/03/02 05:19:03;;;;;;;1.45;1.05;;;0.50;99.90;;;;;;4402060;32;20125;-87
2021/03/02 05:21:29;;;;;;;0.62;0.62;;;0.50;99.90;;;;;;4401938;32;20515;-87
2021/03/02 05:23:55;;;;;;;0.73;0.73;;;0.50;99.90;;;;;;4402229;32;20074;-87
2021/03/02 05:26:21;;;;;;;1.67;1.00;;;0.40;99.90;;;;;;4402086;32;20198;-87
2021/03/02 05:28:49;;;;;;;0.30;0.30;;;0.30;99.90;;;;;;4402412;32;20082;-87
2021/03/02 05:31:15;;;;;;;0.32;0.32;;;0.30;99.90;;;;;;4402322;32;20130;-87
2021/03/02 05:33:40;;;;;;;0.68;0.68;;;0.10;99.90;;;;;;4402371;32;20189;-87
2021/03/02 05:36:06;;;;;;;0.60;0.60;;;0.20;99.90;;;;;;4402760;32;20078;-87
2021/03/02 05:38:32;;;;;;;0.45;0.45;;;0.40;99.90;;;;;;4402618;32;20073;-87
2021/03/02 05:40:58;;;;;;;0.60;0.60;;;0.40;99.90;;;;;;4400859;32;20078;-87
2021/03/02 05:43:24;;;;;;;1.70;0.80;;;0.30;99.90;;;;;;4402712;32;20479;-87
2021/03/02 05:45:49;;;;;;;1.37;1.00;;;0.30;99.90;;;;;;4401838;32;20074;-87
2021/03/02 05:48:16;;;;;;;1.52;1.42;;;0.40;99.90;;;;;;4401965;32;20074;-87
2021/03/02 05:50:41;;;;;;;4.80;1.15;;;0.40;99.90;;;;;;4401224;32;20069;-87
2021/03/02 05:53:08;;;;;;;0.70;0.70;;;0.10;99.90;;;;;;4401488;32;20077;-87
2021/03/02 05:55:35;;;;;;;1.95;1.10;;;0.10;99.90;;;;;;4413978;32;20490;-87
2021/03/02 05:58:03;;;;;;;0.43;0.43;;;-0.10;99.90;;;;;;4432064;32;20073;-87
2021/03/02 06:00:30;;;;;;;0.37;0.37;;;0.00;99.90;;;;;;4431755;32;20057;-87
2021/03/02 06:02:56;;;;;;;0.70;0.70;;;0.10;99.90;;;;;;4420864;32;20506;-87
2021/03/02 06:05:21;;;;;;;0.47;0.47;;;0.00;99.90;;;;;;4411231;32;20081;-87
2021/03/02 06:07:47;;;;;;;1.48;1.10;;;0.20;99.90;;;;;;4417208;32;20177;-87
2021/03/02 06:10:15;;;;;;;0.35;0.35;;;0.20;99.90;;;;;;4400681;32;20087;-87
2021/03/02 06:12:50;;;;;;;0.82;0.82;;;0.20;99.90;;;;;;4402064;32;20074;-87
2021/03/02 06:15:18;;;;;;;0.85;0.85;;;0.20;99.90;;;;;;4414217;32;20083;-87
2021/03/02 06:17:44;;;;;;;0.52;0.52;;;0.30;99.90;;;;;;4415718;32;20082;-87
2021/03/02 06:20:21;;;;;;;0.55;0.55;;;0.30;99.90;;;;;;4427693;32;20130;-87
2021/03/02 06:22:50;;;;;;;4.47;1.30;;;0.30;99.90;;;;;;4430772;32;20117;-87
2021/03/02 06:25:34;;;;;;;0.88;0.88;;;0.40;99.90;;;;;;4430486;32;20125;-87
2021/03/02 06:27:59;;;;;;;0.70;0.70;;;0.30;99.90;;;;;;4431334;32;20069;-87
2021/03/02 06:30:25;;;;;;;1.42;0.85;;;0.40;99.90;;;;;;4431526;32;20061;-87
2021/03/02 06:32:53;;;;;;;1.92;0.75;;;0.30;99.90;;;;;;4416312;32;20077;-87
2021/03/02 06:35:38;;;;;;;0.50;0.50;;;0.40;99.90;;;;;;4416317;32;20404;-87
2021/03/02 06:38:05;;;;;;;0.50;0.50;;;0.20;99.90;;;;;;4415658;32;20081;-87
2021/03/02 06:40:48;;;;;;;0.90;0.80;;;0.30;99.90;;;;;;4416674;32;20065;-88
2021/03/02 06:43:32;;;;;;;0.60;0.60;;;0.40;99.90;;;;;;4416341;32;20086;-87
2021/03/02 06:46:01;;;;;;;0.77;0.77;;;0.50;99.90;;;;;;4414979;32;20077;-87
2021/03/02 06:48:28;;;;;;;0.43;0.43;;;0.50;99.90;;;;;;4417111;32;20089;-88
2021/03/02 06:50:54;;;;;;;0.77;0.77;;;0.60;99.90;;;;;;4415500;32;20393;-88
2021/03/02 06:53:20;;;;;;;1.20;1.10;;;0.50;99.90;;;;;;4416846;32;20169;-87
2021/03/02 06:55:45;;;;;;;0.50;0.50;;;0.50;99.90;;;;;;4417857;32;20085;-87
2021/03/02 06:58:17;;;;;;;6.65;2.40;;;0.60;99.90;;;;;;4415951;32;20072;-87
2021/03/02 07:00:46;;;;;;;0.55;0.55;;;0.80;99.90;;;;;;4416389;32;20078;-87
2021/03/02 07:03:30;;;;;;;1.02;0.80;;;0.90;99.90;;;;;;4418370;32;20087;-87
2021/03/02 07:06:02;;;;;;;1.17;0.93;;;0.90;99.90;;;;;;4403762;32;20127;-87
2021/03/02 07:08:28;;;;;;;0.68;0.65;;;0.80;99.90;;;;;;4409373;32;20189;-87
2021/03/02 07:10:54;;;;;;;1.48;1.00;;;0.80;99.90;;;;;;4413476;32;20495;-88
2021/03/02 07:13:21;;;;;;;1.20;1.02;;;0.40;99.90;;;;;;4413954;32;20533;-87
2021/03/02 07:15:47;;;;;;;52.55;1.95;;;0.40;99.90;;;;;;4411660;32;20077;-88
2021/03/02 07:18:15;;;;;;;0.60;0.60;;;0.50;99.90;;;;;;4418483;32;20078;-87
2021/03/02 07:20:47;;;;;;;1.45;0.90;;;0.50;99.90;;;;;;4419367;32;20081;-87
2021/03/02 07:23:16;;;;;;;3.92;1.70;;;0.60;99.90;;;;;;4416703;32;20093;-87
2021/03/02 07:25:43;;;;;;;0.50;0.50;;;0.80;99.90;;;;;;4422449;32;20074;-87
2021/03/02 07:28:11;;;;;;;0.47;0.47;;;1.00;99.90;;;;;;4414774;32;20132;-88
2021/03/02 07:30:39;;;;;;;0.50;0.50;;;1.00;99.90;;;;;;4417942;32;20205;-88
2021/03/02 07:33:05;;;;;;;1.00;1.00;;;1.00;99.90;;;;;;4428675;32;20069;-88
2021/03/02 07:35:32;;;;;;;1.87;1.10;;;0.90;99.90;;;;;;4418752;32;20082;-88
2021/03/02 07:38:15;;;;;;;0.70;0.70;;;1.00;99.90;;;;;;4408308;32;20078;-87
2021/03/02 07:40:44;;;;;;;6.35;1.50;;;1.30;99.90;;;;;;4405695;32;20061;-88
2021/03/02 07:43:29;;;;;;;0.60;0.60;;;1.30;99.90;;;;;;4406278;32;20070;-87
2021/03/02 07:45:55;;;;;;;2.10;0.85;;;1.30;99.90;;;;;;4414296;32;20124;-87
2021/03/02 07:48:33;;;;;;;0.40;0.40;;;1.40;99.90;;;;;;4405402;32;20129;-88
2021/03/02 07:51:15;;;;;;;0.35;0.35;;;1.60;99.90;;;;;;4413798;32;20078;-87
2021/03/02 07:53:42;;;;;;;1.15;0.95;;;1.30;99.90;;;;;;4403469;32;20078;-88
2021/03/02 07:56:20;;;;;;;0.57;0.57;;;1.30;99.90;;;;;;4417995;32;20137;-88
2021/03/02 07:59:10;;;;;;;0.73;0.73;;;1.40;99.90;;;;;;4418435;32;20771;-88
2021/03/02 08:01:36;;;;;;;1.58;0.95;;;1.30;99.90;;;;;;4417176;32;20064;-87
2021/03/02 08:04:24;;;;;;;0.40;0.40;;;1.40;99.90;;;;;;4429422;32;20073;-88
2021/03/02 08:06:50;;;;;;;0.55;0.55;;;1.30;99.90;;;;;;4427196;32;20078;-88
2021/03/02 08:09:31;;;;;;;0.50;0.50;;;1.30;99.90;;;;;;4421815;32;20110;-88
2021/03/02 08:12:33;;;;;;;0.75;0.75;;;1.30;99.90;;;;;;4411271;32;20078;-88
2021/03/02 08:15:20;;;;;;;0.50;0.50;;;1.50;99.90;;;;;;4408421;32;20069;-88
2021/03/02 08:17:46;;;;;;;0.95;0.93;;;1.40;99.90;;;;;;4409994;32;20420;-87
2021/03/02 08:20:12;;;;;;;0.65;0.65;;;1.40;99.90;;;;;;4417173;32;20065;-88
2021/03/02 08:22:43;;;;;;;0.82;0.82;;;1.50;99.90;;;;;;4414376;32;20129;-88
2021/03/02 08:25:11;;;;;;;0.65;0.65;;;1.70;99.90;;;;;;4401201;32;20199;-87
2021/03/02 08:27:42;;;;;;;0.80;0.80;;;1.80;99.90;;;;;;4414112;32;20066;-88
2021/03/02 08:30:12;;;;;;;0.50;0.50;;;1.90;99.90;;;;;;4422692;32;20065;-88
2021/03/02 08:32:40;;;;;;;0.52;0.52;;;2.10;99.90;;;;;;4411255;32;20086;-88
2021/03/02 08:35:10;;;;;;;0.55;0.55;;;2.20;99.90;;;;;;4412212;32;20086;-88
2021/03/02 08:37:54;;;;;;;0.65;0.65;;;1.90;99.90;;;;;;4408217;32;20074;-88
2021/03/02 08:40:23;;;;;;;1.30;0.88;;;1.90;99.90;;;;;;4408380;32;20070;-88
2021/03/02 08:43:12;;;;;;;0.60;0.60;;;1.90;99.90;;;;;;4407634;32;20073;-88
2021/03/02 08:45:41;;;;;;;0.40;0.40;;;1.90;99.90;;;;;;4415951;32;20069;-88
2021/03/02 08:48:17;;;;;;;0.85;0.80;;;2.00;99.90;;;;;;4411328;32;20156;-88
2021/03/02 08:50:44;;;;;;;0.65;0.65;;;2.20;99.90;;;;;;4413870;32;20550;-88
2021/03/02 08:53:37;;;;;;;2.53;1.40;;;2.10;99.90;;;;;;4415843;32;20136;-89
2021/03/02 08:56:05;;;;;;;0.40;0.40;;;2.10;99.90;;;;;;4415246;32;20103;-89
2021/03/02 08:58:35;;;;;;;3.42;1.23;;;2.20;99.90;;;;;;4412536;32;20443;-88
2021/03/02 09:01:04;;;;;;;0.75;0.75;;;2.20;99.90;;;;;;4412511;32;20078;-88
2021/03/02 09:03:30;;;;;;;8.85;3.62;;;2.00;99.90;;;;;;4415575;32;20090;-89
2021/03/02 09:06:24;;;;;;;1.95;1.20;;;2.10;99.90;;;;;;4414210;32;20082;-88
2021/03/02 09:08:56;;;;;;;0.50;0.50;;;2.30;99.90;;;;;;4412778;32;20082;-89
2021/03/02 09:11:25;;;;;;;0.52;0.52;;;2.30;99.90;;;;;;4419732;32;20164;-88
2021/03/02 09:13:54;;;;;;;1.55;1.30;;;2.50;99.90;;;;;;4415314;32;20070;-89
2021/03/02 09:16:38;;;;;;;1.48;1.23;;;2.60;99.90;;;;;;4415279;32;21153;-88
2021/03/02 09:19:07;;;;;;;1.27;1.02;;;2.60;99.90;;;;;;4421787;32;20062;-88
2021/03/02 09:21:34;;;;;;;1.77;1.37;;;2.50;99.90;;;;;;4416925;32;20070;-88
2021/03/02 09:24:02;;;;;;;1.37;1.27;;;2.60;99.90;;;;;;4410044;32;20536;-88
2021/03/02 09:26:29;;;;;;;0.75;0.75;;;2.70;99.90;;;;;;4414589;32;20120;-88
2021/03/02 09:28:59;;;;;;;1.05;0.95;;;2.70;99.90;;;;;;4419651;32;20070;-88
2021/03/02 09:31:26;;;;;;;0.53;0.53;;;2.70;99.90;;;;;;4416686;32;20061;-87
2021/03/02 09:33:53;;;;;;;1.02;1.02;;;2.80;99.90;;;;;;4422475;32;20187;-87
2021/03/02 09:36:22;;;;;;;0.60;0.60;;;2.90;99.90;;;;;;4415398;32;20078;-88
2021/03/02 09:38:48;;;;;;;1.35;0.95;;;2.90;99.90;;;;;;4414355;32;20090;-87
2021/03/02 09:41:31;;;;;;;1.85;1.12;;;2.80;99.90;;;;;;4418070;32;20417;-87
2021/03/02 09:43:57;;;;;;;0.82;0.68;;;2.90;99.90;;;;;;4410927;32;20097;-87
2021/03/02 09:46:38;;;;;;;0.75;0.75;;;3.10;99.90;;;;;;4404855;32;20085;-86
2021/03/02 09:49:03;;;;;;;;;;;3.40;99.90;;;;;;4405644;32;20086;-87
2021/03/02 09:51:30;;;;;;;0.88;0.75;;;3.60;99.90;;;;;;4417798;32;20013;-87
2021/03/02 09:54:14;;;;;;;0.95;0.90;;;3.70;99.90;;;;;;4418836;32;20143;-88
2021/03/02 09:56:43;;;;;;;1.25;1.00;;;3.50;99.90;;;;;;4408626;32;20099;-88
2021/03/02 09:59:09;;;;;;;1.90;1.40;;;3.70;99.90;;;;;;4410866;32;20054;-88
2021/03/02 10:01:34;;;;;;;1.15;1.02;;;3.70;99.90;;;;;;4416111;32;20081;-88
2021/03/02 10:04:08;;;;;;;1.62;1.00;;;3.80;99.90;;;;;;4409683;32;20144;-88
2021/03/02 10:06:33;;;;;;;1.95;1.37;;;3.80;99.90;;;;;;4411197;32;20094;-88
2021/03/02 10:08:59;;;;;;;0.75;0.75;;;3.60;99.90;;;;;;4408053;32;20432;-88
2021/03/02 10:11:27;;;;;;;1.50;1.25;;;3.80;99.90;;;;;;4412536;32;20133;-89
2021/03/02 10:13:59;;;;;;;2.58;1.15;;;4.00;99.90;;;;;;4411027;32;20535;-88
2021/03/02 10:16:30;;;;;;;0.88;0.88;;;4.00;99.90;;;;;;4417286;32;20383;-89
2021/03/02 10:18:59;;;;;;;0.80;0.80;;;4.10;99.90;;;;;;4410095;32;20411;-89
2021/03/02 10:21:29;;;;;;;1.58;0.95;;;4.20;99.90;;;;;;4411409;32;20368;-88
2021/03/02 10:23:58;;;;;;;1.00;0.93;;;4.40;99.90;;;;;;4418402;32;20058;-89
2021/03/02 10:26:36;;;;;;;11.38;1.65;;;4.60;99.90;;;;;;4418024;32;20074;-88
2021/03/02 10:29:06;;;;;;;9.23;2.00;;;4.90;99.90;;;;;;4409966;32;20140;-88
2021/03/02 10:31:36;;;;;;;1.10;1.00;;;5.00;99.90;;;;;;4418560;32;20089;-88
2021/03/02 10:34:07;;;;;;;6.53;2.10;;;5.20;99.90;;;;;;4413179;32;20615;-89
2021/03/02 10:36:37;;;;;;;0.90;0.90;;;5.50;99.90;;;;;;4412548;32;20046;-88
2021/03/02 10:39:07;;;;;;;2.03;1.50;;;5.70;99.90;;;;;;4409939;32;20089;-89
2021/03/02 10:41:36;;;;;;;0.68;0.68;;;6.00;99.90;;;;;;4409093;32;20061;-89
2021/03/02 10:44:04;;;;;;;0.75;0.70;;;6.10;99.90;;;;;;4419650;32;91438;-87
2021/03/02 10:46:30;;;;;;;0.80;0.80;;;6.10;99.90;;;;;;4414522;32;20054;-89
2021/03/02 10:48:56;;;;;;;1.30;1.17;;;6.00;99.90;;;;;;4407989;32;20050;-89
2021/03/02 10:51:26;;;;;;;1.87;1.15;;;6.10;99.90;;;;;;4419820;32;20074;-88
2021/03/02 10:53:51;;;;;;;2.62;1.37;;;6.10;99.90;;;;;;4418056;32;20083;-88
2021/03/02 10:56:18;;;;;;;2.17;0.98;;;5.80;99.90;;;;;;4425000;32;20070;-89
2021/03/02 10:58:45;;;;;;;1.55;1.27;;;6.00;99.90;;;;;;4413672;32;20121;-89
2021/03/02 11:01:11;;;;;;;1.35;1.00;;;6.20;99.90;;;;;;4420162;32;20182;-90
2021/03/02 11:03:38;;;;;;;4.28;1.02;;;6.40;99.90;;;;;;4413866;32;20070;-88
2021/03/02 11:06:04;;;;;;;1.55;1.23;;;6.70;99.90;;;;;;4417563;32;20066;-89
2021/03/02 11:08:30;;;;;;;2.50;1.25;;;6.70;99.90;;;;;;4410447;32;20083;-88
2021/03/02 11:10:56;;;;;;;1.75;1.40;;;6.70;99.90;;;;;;4417351;32;20117;-89
2021/03/02 11:13:21;;;;;;;2.70;1.40;;;6.60;99.90;;;;;;4419383;32;20081;-89
2021/03/02 11:15:47;;;;;;;1.05;0.95;;;6.90;99.90;;;;;;4425164;32;20070;-88
2021/03/02 11:18:49;;;;;;;2.37;1.45;;;7.30;99.90;;;;;;4428945;32;20074;-88
2021/03/02 11:21:15;;;;;;;1.35;1.20;;;7.50;99.90;;;;;;4470900;27;20102;-72
2021/03/02 11:23:40;;;;;;;0.90;0.90;;;7.80;99.90;;;;;;4423322;32;20090;-72
2021/03/02 11:26:06;;;;;;;4.70;2.45;;;7.70;99.90;;;;;;4424569;32;20132;-72
2021/03/02 11:28:34;;;;;;;1.85;1.12;;;7.90;99.90;;;;;;4426464;32;20065;-73
2021/03/02 11:31:00;;;;;;;5.93;1.05;;;8.10;99.90;;;;;;4423648;32;20080;-72
2021/03/02 11:33:26;;;;;;;1.62;1.02;;;8.40;99.90;;;;;;4424742;32;20169;-73
2021/03/02 11:35:51;;;;;;;11.77;1.95;;;8.90;99.90;;;;;;4424785;32;21638;-72
2021/03/02 11:38:17;;;;;;;3.80;2.15;;;9.30;99.90;;;;;;4418853;32;20085;-74
2021/03/02 11:40:42;;;;;;;1.35;1.05;;;9.20;99.90;;;;;;4412840;32;20514;-73
2021/03/02 11:43:08;;;;;;;2.53;1.23;;;9.60;99.90;;;;;;4423090;32;20061;-73
2021/03/02 11:45:35;;;;;;;0.68;0.68;;;9.60;99.90;;;;;;4419629;32;20070;-73
2021/03/02 11:48:00;;;;;;;0.82;0.82;;;9.70;99.90;;;;;;4422064;32;20510;-73
2021/03/02 11:50:26;;;;;;;3.90;2.08;;;9.80;99.90;;;;;;4429530;32;20065;-73
2021/03/02 11:52:51;;;;;;;0.75;0.75;;;9.90;99.90;;;;;;4429803;32;20060;-73
2021/03/02 11:55:19;;;;;;;1.08;0.93;;;10.20;99.90;;;;;;4426534;32;20109;-73
2021/03/02 11:57:46;;;;;;;1.75;1.00;;;10.60;99.90;;;;;;4423943;32;20428;-73
2021/03/02 12:00:18;;;;;;;6.90;1.00;;;10.60;99.90;;;;;;4422040;32;20086;-72
2021/03/02 12:02:45;;;;;;;0.77;0.68;;;10.70;99.90;;;;;;4427490;32;20147;-73
2021/03/02 12:05:11;;;;;;;1.62;1.10;;;11.20;99.90;;;;;;4425411;32;20082;-73
2021/03/02 12:07:37;;;;;;;3.20;1.95;;;11.50;99.90;;;;;;4429419;32;20274;-73
2021/03/02 12:10:04;;;;;;;2.70;1.20;;;12.00;99.90;;;;;;4426022;32;20065;-73
2021/03/02 12:12:30;;;;;;;1.27;1.12;;;12.30;99.90;;;;;;4426837;32;20073;-73
2021/03/02 12:14:55;;;;;;;1.15;0.90;;;12.80;99.90;;;;;;4422048;32;20074;-73
2021/03/02 12:17:21;;;;;;;3.17;0.85;;;12.90;99.90;;;;;;4414335;32;20081;-73
2021/03/02 12:19:46;;;;;;;4.57;1.20;;;13.00;99.90;;;;;;4423713;32;20082;-73
2021/03/02 12:22:12;;;;;;;0.95;0.73;;;12.90;99.90;;;;;;4416864;32;20427;-73
2021/03/02 12:24:37;;;;;;;9.27;2.53;;;12.40;99.90;;;;;;4416063;32;20086;-73
2021/03/02 12:27:03;;;;;;;5.10;1.15;;;12.70;99.90;;;;;;4418304;32;20124;-73
2021/03/02 12:29:28;;;;;;;0.70;0.70;;;13.00;99.90;;;;;;4417902;32;20479;-73
2021/03/02 12:31:54;;;;;;;1.75;1.45;;;13.60;99.90;;;;;;4414149;32;20061;-73
2021/03/02 12:34:19;;;;;;;1.65;1.08;;;13.80;99.90;;;;;;4417865;32;20093;-73
2021/03/02 12:36:45;;;;;;;4.45;1.33;;;14.10;99.90;;;;;;4416644;32;20171;-73
2021/03/02 12:39:10;;;;;;;3.85;1.25;;;14.40;99.90;;;;;;4412802;32;20077;-73
2021/03/02 12:41:38;;;;;;;2.42;1.15;;;14.30;99.90;;;;;;4411186;32;20069;-73
2021/03/02 12:44:04;;;;;;;2.37;1.58;;;14.40;99.90;;;;;;4413201;32;20553;-73
2021/03/02 12:46:29;;;;;;;2.00;0.85;;;14.60;99.90;;;;;;4412664;32;20490;-73
2021/03/02 12:48:55;;;;;;;2.83;1.15;;;14.80;99.90;;;;;;4413449;32;20077;-73
2021/03/02 12:51:21;;;;;;;1.87;1.62;;;15.10;99.90;;;;;;4413221;32;20127;-73
2021/03/02 12:53:47;;;;;;;1.05;0.93;;;15.10;99.90;;;;;;4413576;32;20120;-73
2021/03/02 12:56:13;;;;;;;0.95;0.80;;;15.40;99.90;;;;;;4413310;32;20062;-73
2021/03/02 12:58:38;;;;;;;3.50;2.15;;;15.80;97.90;;;;;;4412310;32;20069;-73
2021/03/02 13:01:04;;;;;;;6.97;1.15;;;15.80;97.20;;;;;;4413005;32;20514;-73
2021/03/02 13:03:30;;;;;;;32.30;2.12;;;16.10;96.20;;;;;;4413462;32;20066;-73